Limnos, Greece
Current Conditions -  °F | °C
As of 3:50 PM on Wednesday 22 Oct 2014 (Local Time) from LGLM Reporting Station
Broken Clouds Broken Clouds  
Wind Chill: 68°   Ceiling: 2500
Heat Index: 68°   Visibility: 6mi
Dew Point: 63°   Wind: 21mph
Humidity: 83%   Direction: 200°SSW
Pressure: 29.71"   Gusts: 32mph
Location:  39.92°N, 25.24°E
Report Text: LGLM 221250Z 20018G28KT 9999 FEW018TCU BKN025 20/17 Q1006
Loading
Personal Weather Stations






























Interactive Weather Map
Tropical Storm Tracking
New forecast layout! Learn more

10-Day Weather Forecast

Advertisements
Track Severe Weather on mobile